HECAHEPS

Guest
Details From HECA - Cairo Intl
To HEPS - PORT SAID
Flight Number -
Tags generated
Created
Modified
Stats Distance 82 nm / 152 km
Max Altitude 0 ft / 0 m
Waypoints 3
Social Downloads 2
Likes 0
Share VATSIM

Download

Looking for another format? Having issues loading an existing format? Contact us
Advertisement - Login to hide

Notes

Basic altitude profile: - Ascent Rate: 2500ft/min - Ascent Speed: 250kts - Cruise Altitude: 35000ft - Cruise Speed: 420kts - Descent Rate: 1500ft/min - Descent Speed: 250kts Options: - Use NATs: yes - Use PACOTS: yes - Use low airways: no - Use high airways: yes

Route

HECA PSD HEPS

ID Type Via Altitude Latitude Longitude Leg Dist Tot Dist Heading (true) Name
O HECA APT - 0 ft / 0 m 30.12181˚ 31.40610˚ - 0 nm - Cairo Intl
PSD VOR - 0 ft / 0 m 31.27881˚ 32.23781˚ 81 nm 81 nm 32° / 32° PORT SAID VOR-DME
O HEPS APT - 0 ft / 0 m 31.27939˚ 32.24006˚ 0 nm 81 nm 73° / 73° PORT SAID

Altitude Profile

Advertisement - Login to hide

HECA

Details ICAO HECA (CAI)
Name Cairo Intl
Region Egypt
Timezone Africa/Cairo (UTC+2.0)
Stats Elevation 382 ft / 116 m (AMSL)
Location 30.121808° 31.406095°
Runways 3
Magnetic Variation 4.403° E

METAR

HECA 121930Z 32004KT 3000 HZ NSC 19/14 Q1020 NOSIG

Decode

TAF

TAF HECA 121700Z 1218/1324 VRB03KT 4000 HZ NSC TEMPO 1300/1307 2000 BR TEMPO 1301/1306 1000 FG PROB40 TEMPO 1302/1305 0800 FG

Decode

Departure Runways

ID Width Length Bearing (true) Bearing (mag) Surface Threshold Offset Overrun Length
05L 197 ft / 60 m 10,833 ft / 3,302 m 49.29° 44.89° Asphalt 0 ft / 0 m 185 ft / 56 m
05R 197 ft / 60 m 13,126 ft / 4,001 m 49.03° 44.63° Asphalt 0 ft / 0 m 216 ft / 66 m
16 197 ft / 60 m 10,456 ft / 3,187 m 162.61° 158.21° Asphalt 0 ft / 0 m 125 ft / 38 m
23L 197 ft / 60 m 13,126 ft / 4,001 m 229.05° 224.65° Asphalt 0 ft / 0 m 225 ft / 69 m
23R 197 ft / 60 m 10,833 ft / 3,302 m 229.30° 224.90° Asphalt 0 ft / 0 m 185 ft / 56 m
34 197 ft / 60 m 10,456 ft / 3,187 m 342.61° 338.21° Asphalt 0 ft / 0 m 195 ft / 59 m

HEPS

Details ICAO HEPS (PSD)
Name PORT SAID
Region Egypt
Timezone Africa/Cairo (UTC+2.0)
Stats Elevation 8 ft / 2 m (AMSL)
Location 31.279393° 32.240063°
Runways 1
Magnetic Variation 4.542° E

METAR

HEPS 121900Z 26003KT CAVOK 19/15 Q1015 NOSIG

Decode

TAF

Not found

Destination Runways

ID Width Length Bearing (true) Bearing (mag) Surface Threshold Offset Overrun Length
10 148 ft / 45 m 7,697 ft / 2,346 m 105.87° 101.33° Asphalt 0 ft / 0 m 200 ft / 61 m
28 148 ft / 45 m 7,697 ft / 2,346 m 285.88° 281.34° Asphalt 0 ft / 0 m 200 ft / 61 m

Popular Alternatives